createdAt,value
2019-03-06T00:00:42.106Z,65.83
2019-03-06T00:03:10.999Z,65.55
2019-03-06T00:05:40.214Z,65.28
2019-03-06T00:08:09.019Z,65.43
2019-03-06T00:10:37.750Z,66.30
2019-03-06T00:13:06.485Z,66.54
2019-03-06T00:15:35.310Z,66.84
2019-03-06T00:18:05.118Z,67.00
2019-03-06T00:20:33.903Z,67.31
2019-03-06T00:23:02.639Z,67.04
2019-03-06T00:25:31.622Z,67.45
2019-03-06T00:28:00.625Z,67.40
2019-03-06T00:30:29.826Z,67.41
2019-03-06T00:32:59.213Z,67.10
2019-03-06T00:35:36.989Z,67.47
2019-03-06T00:38:06.105Z,67.92
2019-03-06T00:40:36.793Z,67.82
2019-03-06T00:43:05.940Z,67.91
2019-03-06T00:45:35.141Z,67.72
2019-03-06T00:48:03.879Z,67.19
2019-03-06T00:50:32.619Z,67.17
2019-03-06T00:53:01.585Z,66.96
2019-03-06T00:55:30.324Z,66.88
2019-03-06T00:57:59.098Z,67.24
2019-03-06T01:00:27.858Z,66.44
2019-03-06T01:02:56.640Z,66.75
2019-03-06T01:05:25.868Z,67.39
2019-03-06T01:07:54.747Z,66.84
2019-03-06T01:10:23.517Z,66.51
2019-03-06T01:12:52.356Z,66.18
2019-03-06T01:15:21.395Z,66.13
2019-03-06T01:17:50.488Z,66.06
2019-03-06T01:20:19.246Z,66.15
2019-03-06T01:22:48.047Z,66.26
2019-03-06T01:25:22.009Z,66.00
2019-03-06T01:27:50.767Z,65.97
2019-03-06T01:30:20.975Z,65.89
2019-03-06T01:32:51.349Z,66.20
2019-03-06T01:35:27.447Z,66.11
2019-03-06T01:37:57.768Z,65.98
2019-03-06T01:40:28.088Z,66.16
2019-03-06T01:43:07.408Z,66.34
2019-03-06T01:45:36.168Z,66.52
2019-03-06T01:48:05.027Z,66.25
2019-03-06T01:50:33.807Z,66.31
2019-03-06T01:53:02.567Z,66.31
2019-03-06T01:55:31.390Z,66.17
2019-03-06T01:58:00.188Z,66.10
2019-03-06T02:00:28.968Z,65.67
2019-03-06T02:02:57.806Z,65.52
2019-03-06T02:05:27.208Z,65.56
2019-03-06T02:07:55.968Z,65.22
2019-03-06T02:10:24.769Z,65.35
2019-03-06T02:12:53.577Z,65.20
2019-03-06T02:15:22.508Z,65.33
2019-03-06T02:17:51.268Z,65.17
2019-03-06T02:20:20.262Z,65.49
2019-03-06T02:22:49.030Z,65.48
2019-03-06T02:25:17.817Z,65.58
2019-03-06T02:27:46.648Z,65.79
2019-03-06T02:30:26.101Z,65.73
2019-03-06T02:32:54.829Z,65.61
2019-03-06T02:35:23.631Z,65.65
2019-03-06T02:37:52.469Z,65.52
2019-03-06T02:40:21.248Z,65.61
2019-03-06T02:42:50.054Z,65.97
2019-03-06T02:45:20.172Z,65.82
2019-03-06T02:47:49.190Z,65.61
2019-03-06T02:50:18.747Z,65.51
2019-03-06T02:52:47.518Z,65.45
2019-03-06T02:55:17.513Z,65.53
2019-03-06T02:57:47.939Z,65.48
2019-03-06T03:00:37.012Z,65.69
2019-03-06T03:03:16.570Z,65.88
2019-03-06T03:05:49.729Z,65.81
2019-03-06T03:08:18.589Z,65.75
2019-03-06T03:10:47.633Z,65.88
2019-03-06T03:13:16.508Z,65.49
2019-03-06T03:15:45.271Z,65.91
2019-03-06T03:18:14.031Z,65.83
2019-03-06T03:20:42.808Z,65.83
2019-03-06T03:23:11.850Z,65.69
2019-03-06T03:25:40.678Z,65.75
2019-03-06T03:28:09.425Z,65.80
2019-03-06T03:30:38.287Z,65.75
2019-03-06T03:33:07.149Z,65.29
2019-03-06T03:35:35.911Z,65.55
2019-03-06T03:38:04.712Z,65.49
2019-03-06T03:40:33.467Z,65.57
2019-03-06T03:43:02.231Z,65.65
2019-03-06T03:45:31.010Z,65.71
2019-03-06T03:47:59.776Z,65.66
2019-03-06T03:50:28.575Z,65.45
2019-03-06T03:52:57.307Z,65.54
2019-03-06T03:55:26.137Z,65.34
2019-03-06T03:57:54.846Z,65.56
2019-03-06T04:00:24.227Z,65.43
2019-03-06T04:02:53.268Z,65.29
2019-03-06T04:05:22.032Z,65.49
2019-03-06T04:07:50.830Z,65.25
2019-03-06T04:10:19.691Z,65.11
2019-03-06T04:12:48.469Z,65.25
2019-03-06T04:15:20.330Z,65.60
2019-03-06T04:17:49.089Z,65.41
2019-03-06T04:20:18.488Z,65.63
2019-03-06T04:22:47.247Z,65.31
2019-03-06T04:25:16.074Z,65.43
2019-03-06T04:27:44.890Z,65.42
2019-03-06T04:30:18.749Z,65.62
2019-03-06T04:32:47.569Z,65.57
2019-03-06T04:35:16.514Z,66.19
2019-03-06T04:37:45.269Z,66.36
2019-03-06T04:40:14.951Z,66.77
2019-03-06T04:42:43.815Z,66.52
2019-03-06T04:45:15.069Z,66.93
2019-03-06T04:47:43.829Z,67.12
2019-03-06T04:50:16.068Z,66.99
2019-03-06T04:52:45.028Z,66.87
2019-03-06T04:55:15.568Z,66.54
2019-03-06T04:57:44.488Z,66.74
2019-03-06T05:00:18.688Z,66.81
2019-03-06T05:02:47.429Z,66.74
2019-03-06T05:05:16.257Z,66.56
2019-03-06T05:07:45.019Z,66.32
2019-03-06T05:10:14.889Z,66.56
2019-03-06T05:12:43.651Z,66.61
2019-03-06T05:15:16.353Z,66.82
2019-03-06T05:17:46.670Z,67.60
2019-03-06T05:20:15.448Z,67.25
2019-03-06T05:22:44.228Z,67.80
2019-03-06T05:25:12.994Z,67.60
2019-03-06T05:27:41.777Z,67.35
2019-03-06T05:30:16.067Z,67.13
2019-03-06T05:32:47.350Z,67.19
2019-03-06T05:35:25.186Z,67.39
2019-03-06T05:38:02.908Z,67.42
2019-03-06T05:40:31.687Z,67.53
2019-03-06T05:43:00.448Z,67.76
2019-03-06T05:45:29.208Z,67.77
2019-03-06T05:47:57.972Z,67.68
2019-03-06T05:50:26.719Z,67.40
2019-03-06T05:52:55.533Z,67.51
2019-03-06T05:55:24.289Z,67.44
2019-03-06T05:57:53.069Z,67.74
2019-03-06T06:00:23.428Z,67.67
2019-03-06T06:02:52.167Z,67.66
2019-03-06T06:05:20.988Z,67.92
2019-03-06T06:07:50.648Z,67.71
2019-03-06T06:10:19.423Z,67.51
2019-03-06T06:12:48.508Z,67.33
2019-03-06T06:15:17.488Z,67.28
2019-03-06T06:17:46.308Z,66.98
2019-03-06T06:20:15.878Z,66.82
2019-03-06T06:22:54.749Z,66.62
2019-03-06T06:25:24.994Z,66.38
2019-03-06T06:27:53.751Z,66.46
2019-03-06T06:30:22.512Z,66.17
2019-03-06T06:32:51.283Z,65.98
2019-03-06T06:35:20.049Z,65.80
2019-03-06T06:37:50.529Z,65.52
2019-03-06T06:40:19.288Z,65.32
2019-03-06T06:42:48.208Z,65.06
2019-03-06T06:45:18.796Z,64.30
2019-03-06T06:48:09.870Z,64.18
2019-03-06T06:51:10.551Z,63.81
2019-03-06T06:53:53.133Z,63.48
2019-03-06T06:56:30.330Z,63.60
2019-03-06T06:59:02.052Z,63.44
2019-03-06T07:02:23.628Z,63.41
2019-03-06T07:05:26.569Z,63.84
2019-03-06T07:07:56.908Z,63.40
2019-03-06T07:10:45.768Z,63.45
2019-03-06T07:13:16.148Z,62.72
2019-03-06T07:15:46.489Z,61.58
2019-03-06T07:18:19.708Z,61.93
2019-03-06T07:21:08.648Z,60.56
2019-03-06T07:23:51.397Z,60.07
2019-03-06T07:26:27.488Z,60.37
2019-03-06T07:29:03.726Z,58.92
2019-03-06T07:31:37.147Z,58.24
2019-03-06T07:34:07.628Z,57.52
2019-03-06T07:36:47.256Z,57.98
2019-03-06T07:39:20.108Z,58.71
2019-03-06T07:41:53.209Z,57.23
2019-03-06T07:44:30.246Z,55.91
2019-03-06T07:47:15.950Z,57.78
2019-03-06T07:49:47.368Z,56.69
2019-03-06T07:52:34.227Z,55.72
2019-03-06T07:55:22.909Z,55.39
2019-03-06T07:58:27.568Z,55.97
2019-03-06T08:00:56.328Z,55.06
2019-03-06T08:03:25.090Z,55.00
2019-03-06T08:05:53.895Z,54.04
2019-03-06T08:08:22.689Z,53.70
2019-03-06T08:10:52.508Z,53.98
2019-03-06T08:13:25.768Z,52.95
2019-03-06T08:15:56.128Z,52.62
2019-03-06T08:18:29.368Z,52.44
2019-03-06T08:21:02.748Z,51.01
2019-03-06T08:23:45.308Z,51.01
2019-03-06T08:26:14.090Z,50.80
2019-03-06T08:28:44.402Z,50.46
2019-03-06T08:31:14.895Z,51.66
2019-03-06T08:33:43.656Z,51.07
2019-03-06T08:36:12.448Z,48.35
2019-03-06T08:38:42.368Z,49.84
2019-03-06T08:41:11.165Z,50.24
2019-03-06T08:43:39.967Z,49.38
2019-03-06T08:46:19.650Z,47.38
2019-03-06T08:48:56.368Z,49.24
2019-03-06T08:51:29.568Z,47.73
2019-03-06T08:54:15.089Z,47.04
2019-03-06T08:56:47.988Z,47.10
2019-03-06T08:59:18.793Z,45.43
2019-03-06T09:02:00.027Z,44.84
2019-03-06T09:04:26.949Z,44.90
2019-03-06T09:07:13.211Z,44.61
2019-03-06T09:09:52.532Z,44.83
2019-03-06T09:12:40.788Z,45.43
2019-03-06T09:15:30.168Z,44.64
2019-03-06T09:18:09.397Z,44.14
2019-03-06T09:20:50.488Z,43.17
2019-03-06T09:23:23.381Z,44.22
2019-03-06T09:25:59.568Z,42.47
2019-03-06T09:28:29.888Z,39.92
2019-03-06T09:31:01.489Z,38.07
2019-03-06T09:33:32.688Z,37.36
2019-03-06T09:36:06.008Z,35.19
2019-03-06T09:38:42.421Z,34.81
2019-03-06T09:41:21.607Z,33.93
2019-03-06T09:43:54.968Z,34.09
2019-03-06T09:46:28.408Z,33.00
2019-03-06T09:49:11.295Z,33.11
2019-03-06T09:51:55.347Z,32.79
2019-03-06T09:54:25.768Z,32.03
2019-03-06T09:57:02.116Z,31.66
2019-03-06T09:59:48.968Z,31.57
2019-03-06T10:02:19.287Z,32.60
2019-03-06T10:04:52.709Z,31.46
2019-03-06T10:07:23.050Z,31.08
2019-03-06T10:09:59.084Z,32.94
2019-03-06T10:12:28.408Z,30.99
2019-03-06T10:15:07.888Z,31.44
2019-03-06T10:17:44.516Z,31.97
2019-03-06T10:20:24.874Z,32.14
2019-03-06T10:22:46.481Z,33.50
2019-03-06T10:25:15.348Z,32.21
2019-03-06T10:27:44.172Z,33.47
2019-03-06T10:30:18.723Z,32.10
2019-03-06T10:32:47.730Z,31.98
2019-03-06T10:35:18.297Z,31.92
2019-03-06T10:37:47.330Z,32.87
2019-03-06T10:40:18.467Z,31.09
2019-03-06T10:42:47.350Z,32.07
2019-03-06T10:45:17.809Z,29.92
2019-03-06T10:47:47.248Z,29.12
2019-03-06T10:50:26.370Z,28.84
2019-03-06T10:52:49.612Z,29.57
2019-03-06T10:55:19.928Z,30.74
2019-03-06T10:57:48.968Z,31.77
2019-03-06T11:00:27.548Z,31.48
2019-03-06T11:02:57.034Z,31.63
2019-03-06T11:05:27.751Z,31.03
2019-03-06T11:07:56.908Z,31.21
2019-03-06T11:12:57.169Z,29.88
2019-03-06T11:15:26.228Z,29.22
2019-03-06T11:17:55.113Z,29.06
2019-03-06T11:18:55.889Z,30.65
2019-03-06T11:20:30.108Z,29.69
2019-03-06T11:23:01.568Z,30.20
2019-03-06T11:25:33.767Z,30.37
2019-03-06T11:28:03.048Z,28.80
2019-03-06T11:30:49.408Z,29.06
2019-03-06T11:33:19.477Z,30.27
2019-03-06T11:35:48.830Z,30.31
2019-03-06T11:38:18.141Z,30.23
2019-03-06T11:40:47.068Z,29.36
2019-03-06T11:43:17.528Z,30.13
2019-03-06T11:45:47.088Z,31.38
2019-03-06T11:48:15.969Z,29.98
2019-03-06T11:50:44.988Z,29.63
2019-03-06T11:53:13.909Z,30.19
2019-03-06T11:55:42.772Z,31.37
2019-03-06T11:58:15.488Z,30.01
2019-03-06T12:00:46.088Z,30.59
2019-03-06T12:03:16.852Z,31.80
2019-03-06T12:05:46.068Z,32.61
2019-03-06T12:08:17.128Z,33.75
2019-03-06T12:10:46.011Z,34.39
2019-03-06T12:13:17.988Z,35.26
2019-03-06T12:15:48.685Z,34.49
2019-03-06T12:18:18.709Z,34.50
2019-03-06T12:20:47.649Z,32.65
2019-03-06T12:23:16.430Z,31.02
2019-03-06T12:25:45.348Z,31.40
2019-03-06T12:28:15.428Z,32.89
2019-03-06T12:30:44.256Z,33.33
2019-03-06T12:33:16.008Z,33.08
2019-03-06T12:35:44.793Z,32.61
2019-03-06T12:38:13.668Z,32.42
2019-03-06T12:40:44.068Z,31.97
2019-03-06T12:43:12.888Z,33.78
2019-03-06T12:45:44.209Z,34.54
2019-03-06T12:48:17.988Z,35.85
2019-03-06T12:50:54.066Z,34.87
2019-03-06T12:53:17.268Z,33.55
2019-03-06T12:55:46.068Z,33.44
2019-03-06T12:58:14.827Z,34.83
2019-03-06T13:00:43.629Z,33.88
2019-03-06T13:03:12.399Z,34.04
2019-03-06T13:05:41.228Z,34.46
2019-03-06T13:08:19.531Z,34.57
2019-03-06T13:10:40.529Z,34.10
2019-03-06T13:13:10.328Z,34.43
2019-03-06T13:15:39.203Z,34.77
2019-03-06T13:18:08.008Z,35.94
2019-03-06T13:20:36.808Z,35.41
2019-03-06T13:23:07.335Z,35.29
2019-03-06T13:25:36.168Z,35.44
2019-03-06T13:28:05.028Z,35.22
2019-03-06T13:30:34.420Z,34.78
2019-03-06T13:33:10.749Z,35.30
2019-03-06T13:35:40.508Z,34.47
2019-03-06T13:38:09.269Z,34.88
2019-03-06T13:40:38.029Z,35.68
2019-03-06T13:43:06.949Z,36.55
2019-03-06T13:45:36.157Z,35.98
2019-03-06T13:48:05.028Z,35.03
2019-03-06T13:50:33.808Z,36.57
2019-03-06T13:53:02.729Z,35.84
2019-03-06T13:55:31.487Z,35.36
2019-03-06T13:58:00.426Z,36.19
2019-03-06T14:00:29.207Z,36.38
2019-03-06T14:02:59.751Z,36.26
2019-03-06T14:05:28.698Z,36.25
2019-03-06T14:07:57.448Z,35.97
2019-03-06T14:10:26.936Z,35.73
2019-03-06T14:12:55.927Z,34.28
2019-03-06T14:15:24.866Z,33.92
2019-03-06T14:17:53.628Z,33.94
2019-03-06T14:20:23.398Z,33.80
2019-03-06T14:22:52.369Z,33.50
2019-03-06T14:25:22.029Z,34.38
2019-03-06T14:27:51.028Z,34.33
2019-03-06T14:30:25.388Z,34.43
2019-03-06T14:32:54.171Z,33.92
2019-03-06T14:35:23.469Z,35.02
2019-03-06T14:37:52.289Z,35.22
2019-03-06T14:40:32.408Z,36.22
2019-03-06T14:43:02.988Z,35.88
2019-03-06T14:45:31.967Z,35.97
2019-03-06T14:48:05.949Z,36.96
2019-03-06T14:50:33.905Z,36.29
2019-03-06T14:53:04.609Z,36.40
2019-03-06T14:55:34.087Z,36.30
2019-03-06T14:58:02.868Z,35.25
2019-03-06T15:00:31.646Z,35.14
2019-03-06T15:03:00.409Z,36.12
2019-03-06T15:05:29.147Z,35.96
2019-03-06T15:07:57.926Z,36.48
2019-03-06T15:10:27.110Z,36.00
2019-03-06T15:12:55.887Z,35.82
2019-03-06T15:15:24.691Z,36.41
2019-03-06T15:17:53.507Z,36.18
2019-03-06T15:20:27.150Z,36.13
2019-03-06T15:22:56.530Z,36.64
2019-03-06T15:25:26.807Z,36.69
2019-03-06T15:27:55.571Z,36.64
2019-03-06T15:30:24.427Z,36.19
2019-03-06T15:32:53.207Z,36.20
2019-03-06T15:35:22.608Z,35.87
2019-03-06T15:37:51.528Z,35.76
2019-03-06T15:40:32.228Z,35.73
2019-03-06T15:43:01.014Z,35.35
2019-03-06T15:45:33.737Z,35.60
2019-03-06T15:48:02.677Z,35.73
2019-03-06T15:50:31.527Z,35.89
2019-03-06T15:53:00.367Z,36.30
2019-03-06T15:55:30.050Z,36.40
2019-03-06T15:58:00.348Z,36.76
2019-03-06T16:00:35.130Z,36.81
2019-03-06T16:03:06.169Z,37.26
2019-03-06T16:05:35.888Z,37.52
2019-03-06T16:08:05.751Z,38.31
2019-03-06T16:10:34.667Z,38.20
2019-03-06T16:13:04.287Z,39.40
2019-03-06T16:15:33.248Z,39.54
2019-03-06T16:18:05.167Z,39.24
2019-03-06T16:20:34.287Z,39.99
2019-03-06T16:23:03.148Z,40.44
2019-03-06T16:25:36.867Z,40.04
2019-03-06T16:28:02.708Z,40.70
2019-03-06T16:30:31.748Z,40.46
2019-03-06T16:33:00.727Z,40.62
2019-03-06T16:35:29.691Z,40.99
2019-03-06T16:37:58.792Z,41.11
2019-03-06T16:40:28.128Z,41.24
2019-03-06T16:42:57.031Z,41.47
2019-03-06T16:45:29.393Z,41.41
2019-03-06T16:47:58.473Z,41.72
2019-03-06T16:50:27.735Z,41.42
2019-03-06T16:52:56.768Z,42.20
2019-03-06T16:55:26.687Z,42.38
2019-03-06T16:57:55.855Z,43.02
2019-03-06T17:00:29.607Z,43.63
2019-03-06T17:03:00.029Z,43.72
2019-03-06T17:05:29.107Z,43.57
2019-03-06T17:07:59.247Z,43.88
2019-03-06T17:10:29.721Z,44.10
2019-03-06T17:12:59.147Z,44.15
2019-03-06T17:15:29.167Z,43.97
2019-03-06T17:17:58.167Z,44.07
2019-03-06T17:20:31.908Z,44.01
2019-03-06T17:23:01.107Z,44.01
2019-03-06T17:25:31.428Z,43.94
2019-03-06T17:28:00.367Z,44.48
2019-03-06T17:30:34.308Z,44.07
2019-03-06T17:33:16.888Z,43.68
2019-03-06T17:35:45.928Z,44.02
2019-03-06T17:38:15.927Z,43.74
2019-03-06T17:40:45.424Z,43.80
2019-03-06T17:43:14.964Z,43.99
2019-03-06T17:45:44.669Z,43.81
2019-03-06T17:48:13.848Z,43.72
2019-03-06T17:50:43.158Z,43.40
2019-03-06T17:53:12.028Z,43.36
2019-03-06T17:55:41.035Z,43.45
2019-03-06T17:58:10.051Z,43.36
2019-03-06T18:00:43.787Z,43.44
2019-03-06T18:03:14.488Z,43.40
2019-03-06T18:05:43.301Z,43.67
2019-03-06T18:08:12.342Z,43.44
2019-03-06T18:10:41.390Z,43.64
2019-03-06T18:13:10.751Z,44.08
2019-03-06T18:15:39.707Z,44.23
2019-03-06T18:18:08.713Z,44.32
2019-03-06T18:20:37.825Z,44.15
2019-03-06T18:23:06.667Z,44.12
2019-03-06T18:25:35.750Z,44.51
2019-03-06T18:28:05.186Z,44.50
2019-03-06T18:30:34.105Z,44.68
2019-03-06T18:33:03.076Z,44.89
2019-03-06T18:35:31.945Z,44.86
2019-03-06T18:38:00.985Z,44.92
2019-03-06T18:40:31.785Z,45.43
2019-03-06T18:43:01.345Z,45.65
2019-03-06T18:45:31.106Z,45.54
2019-03-06T18:48:00.026Z,45.30
2019-03-06T18:50:28.899Z,45.60
2019-03-06T18:52:59.188Z,45.69
2019-03-06T18:55:28.338Z,45.64
2019-03-06T18:57:57.661Z,45.20
2019-03-06T19:00:30.876Z,44.77
2019-03-06T19:03:01.507Z,44.51
2019-03-06T19:05:30.513Z,44.53
2019-03-06T19:07:59.586Z,44.50
2019-03-06T19:10:29.691Z,43.95
2019-03-06T19:12:58.505Z,44.44
2019-03-06T19:15:29.065Z,44.70
2019-03-06T19:17:58.114Z,44.45
2019-03-06T19:20:27.078Z,44.54
2019-03-06T19:22:56.177Z,44.46
2019-03-06T19:25:25.305Z,44.59
2019-03-06T19:27:54.346Z,44.83
2019-03-06T19:30:24.547Z,44.84
2019-03-06T19:32:55.265Z,45.69
2019-03-06T19:35:27.026Z,45.28
2019-03-06T19:37:56.104Z,46.02
2019-03-06T19:40:25.585Z,44.57
2019-03-06T19:42:54.585Z,45.39
2019-03-06T19:45:25.504Z,45.33
2019-03-06T19:47:54.987Z,45.89
2019-03-06T19:50:28.346Z,46.26
2019-03-06T19:52:57.545Z,46.45
2019-03-06T19:55:26.585Z,46.01
2019-03-06T19:58:03.865Z,46.35
2019-03-06T20:00:33.656Z,46.32
2019-03-06T20:03:05.932Z,46.18
2019-03-06T20:05:39.573Z,46.78
2019-03-06T20:08:12.615Z,46.39
2019-03-06T20:10:41.933Z,46.45
2019-03-06T20:13:11.624Z,46.63
2019-03-06T20:15:41.567Z,46.89
2019-03-06T20:18:10.893Z,47.44
2019-03-06T20:20:40.324Z,47.47
2019-03-06T20:23:09.244Z,47.50
2019-03-06T20:25:38.124Z,47.80
2019-03-06T20:28:07.638Z,47.86
2019-03-06T20:30:36.673Z,47.72
2019-03-06T20:33:06.203Z,48.06
2019-03-06T20:35:35.283Z,47.54
2019-03-06T20:38:04.363Z,48.16
2019-03-06T20:40:34.932Z,47.77
2019-03-06T20:43:04.124Z,48.02
2019-03-06T20:45:34.404Z,47.73
2019-03-06T20:48:03.563Z,47.34
2019-03-06T20:50:34.509Z,47.56
2019-03-06T20:53:03.124Z,47.58
2019-03-06T20:55:32.044Z,47.37
2019-03-06T20:58:01.444Z,47.41
2019-03-06T21:00:32.164Z,47.48
2019-03-06T21:03:01.294Z,47.34
2019-03-06T21:05:30.203Z,47.26
2019-03-06T21:07:59.164Z,47.31
2019-03-06T21:10:28.173Z,47.27
2019-03-06T21:12:57.252Z,47.37
2019-03-06T21:15:26.207Z,47.60
2019-03-06T21:17:55.247Z,47.67
2019-03-06T21:20:24.965Z,47.58
2019-03-06T21:22:53.810Z,47.80
2019-03-06T21:25:23.122Z,47.78
2019-03-06T21:27:52.886Z,48.09
2019-03-06T21:30:29.653Z,48.02
2019-03-06T21:32:58.771Z,48.03
2019-03-06T21:35:27.695Z,48.33
2019-03-06T21:37:56.651Z,48.49
2019-03-06T21:40:25.581Z,48.51
2019-03-06T21:42:54.442Z,48.42
2019-03-06T21:45:23.643Z,48.46
2019-03-06T21:47:52.535Z,48.53
2019-03-06T21:50:21.452Z,48.85
2019-03-06T21:52:50.416Z,48.84
2019-03-06T21:55:19.243Z,49.05
2019-03-06T21:57:48.524Z,48.82
2019-03-06T22:00:25.048Z,48.87
2019-03-06T22:02:53.992Z,48.72
2019-03-06T22:05:22.946Z,48.03
2019-03-06T22:07:51.763Z,48.81
2019-03-06T22:10:20.657Z,48.13
2019-03-06T22:12:49.523Z,48.04
2019-03-06T22:15:22.369Z,47.85
2019-03-06T22:17:51.252Z,47.91
2019-03-06T22:20:20.094Z,47.95
2019-03-06T22:22:48.971Z,48.40
2019-03-06T22:25:18.684Z,48.22
2019-03-06T22:27:47.568Z,48.02
2019-03-06T22:30:18.805Z,48.06
2019-03-06T22:32:47.763Z,48.37
2019-03-06T22:35:16.536Z,48.67
2019-03-06T22:37:45.488Z,48.53
2019-03-06T22:40:17.566Z,48.19
2019-03-06T22:42:46.364Z,48.90
2019-03-06T22:45:17.164Z,48.46
2019-03-06T22:47:46.051Z,48.79
2019-03-06T22:50:17.004Z,49.29
2019-03-06T22:52:45.847Z,48.53
2019-03-06T22:55:16.524Z,49.04
2019-03-06T22:57:45.377Z,49.42
2019-03-06T23:00:32.698Z,49.18
2019-03-06T23:03:01.803Z,49.04
2019-03-06T23:05:33.163Z,48.85
2019-03-06T23:08:02.054Z,48.66
2019-03-06T23:10:32.525Z,49.09
2019-03-06T23:13:01.411Z,48.57
2019-03-06T23:15:30.412Z,48.76
2019-03-06T23:17:59.604Z,48.56
2019-03-06T23:20:28.500Z,48.46
2019-03-06T23:22:57.364Z,48.57
2019-03-06T23:25:26.205Z,48.55
2019-03-06T23:27:55.123Z,48.26
2019-03-06T23:30:24.051Z,48.26
2019-03-06T23:32:53.323Z,48.33
2019-03-06T23:35:22.084Z,48.47
2019-03-06T23:37:51.059Z,48.34
2019-03-06T23:40:19.851Z,48.29
2019-03-06T23:42:48.724Z,48.22
2019-03-06T23:45:17.604Z,47.86
2019-03-06T23:47:46.604Z,47.89
2019-03-06T23:50:15.563Z,48.25
2019-03-06T23:53:02.374Z,47.97
2019-03-06T23:55:32.575Z,48.33
2019-03-06T23:58:01.444Z,48.29
